createdAt,value
2019-02-06T00:02:26.960Z,46.75
2019-02-06T00:04:56.947Z,46.68
2019-02-06T00:07:48.317Z,46.93
2019-02-06T00:10:37.963Z,46.97
2019-02-06T00:16:43.027Z,46.98
2019-02-06T00:22:32.553Z,46.86
2019-02-06T00:25:38.076Z,47.30
2019-02-06T00:28:15.510Z,47.45
2019-02-06T00:33:55.593Z,47.56
2019-02-06T00:39:18.561Z,47.48
2019-02-06T00:41:48.598Z,47.46
2019-02-06T00:44:38.484Z,47.22
2019-02-06T00:47:09.461Z,47.29
2019-02-06T00:53:06.044Z,47.26
2019-02-06T00:55:36.156Z,47.48
2019-02-06T00:58:25.578Z,47.96
2019-02-06T01:01:16.219Z,48.26
2019-02-06T01:04:06.697Z,48.41
2019-02-06T01:06:55.668Z,48.25
2019-02-06T01:09:44.810Z,48.69
2019-02-06T01:15:37.778Z,48.43
2019-02-06T01:18:16.632Z,48.47
2019-02-06T01:21:08.973Z,48.34
2019-02-06T01:29:20.706Z,48.03
2019-02-06T01:32:11.769Z,48.23
2019-02-06T01:34:41.881Z,48.51
2019-02-06T01:37:51.667Z,48.53
2019-02-06T01:40:21.721Z,48.57
2019-02-06T01:43:12.171Z,48.46
2019-02-06T01:46:01.198Z,48.58
2019-02-06T01:48:51.672Z,48.65
2019-02-06T01:51:34.588Z,48.90
2019-02-06T01:56:53.982Z,49.26
2019-02-06T01:59:44.654Z,49.22
2019-02-06T02:06:01.682Z,49.16
2019-02-06T02:11:38.549Z,49.41
2019-02-06T02:14:11.092Z,50.18
2019-02-06T02:20:10.213Z,50.61
2019-02-06T02:28:49.175Z,50.55
2019-02-06T02:31:39.675Z,50.52
2019-02-06T02:37:20.150Z,50.32
2019-02-06T02:39:51.784Z,50.36
2019-02-06T02:45:44.858Z,50.22
2019-02-06T02:48:36.783Z,50.23
2019-02-06T02:54:35.359Z,50.33
2019-02-06T02:57:25.328Z,50.23
2019-02-06T03:00:52.636Z,50.30
2019-02-06T03:03:35.544Z,50.34
2019-02-06T03:06:28.527Z,50.25
2019-02-06T03:09:33.362Z,50.11
2019-02-06T03:12:12.140Z,50.12
2019-02-06T03:14:44.603Z,50.07
2019-02-06T03:20:03.845Z,50.19
2019-02-06T03:22:34.878Z,50.19
2019-02-06T03:25:43.410Z,50.04
2019-02-06T03:28:17.058Z,49.87
2019-02-06T03:30:47.263Z,49.77
2019-02-06T03:33:52.435Z,49.85
2019-02-06T03:36:39.900Z,50.20
2019-02-06T03:39:20.620Z,50.20
2019-02-06T03:42:12.276Z,49.79
2019-02-06T03:51:29.443Z,49.92
2019-02-06T03:54:00.531Z,50.07
2019-02-06T03:56:31.702Z,50.17
2019-02-06T03:59:32.931Z,50.36
2019-02-06T04:02:12.401Z,50.30
2019-02-06T04:05:01.432Z,50.38
2019-02-06T04:07:50.280Z,50.64
2019-02-06T04:10:50.615Z,50.58
2019-02-06T04:13:21.407Z,50.42
2019-02-06T04:19:13.819Z,50.67
2019-02-06T04:22:02.943Z,50.67
2019-02-06T04:24:33.172Z,50.66
2019-02-06T04:27:43.768Z,50.75
2019-02-06T04:30:17.178Z,50.75
2019-02-06T04:33:07.281Z,50.69
2019-02-06T04:38:46.150Z,51.09
2019-02-06T04:41:36.028Z,51.99
2019-02-06T04:44:25.084Z,52.13
2019-02-06T04:47:14.570Z,52.06
2019-02-06T04:50:06.336Z,51.76
2019-02-06T04:55:45.034Z,51.41
2019-02-06T04:58:34.806Z,51.23
2019-02-06T05:01:24.807Z,51.16
2019-02-06T05:04:14.006Z,50.99
2019-02-06T05:07:04.308Z,51.40
2019-02-06T05:09:35.233Z,51.34
2019-02-06T05:14:54.763Z,50.94
2019-02-06T05:17:46.289Z,50.71
2019-02-06T05:20:36.757Z,50.86
2019-02-06T05:23:52.919Z,50.87
2019-02-06T05:26:23.183Z,50.68
2019-02-06T05:29:13.912Z,50.62
2019-02-06T05:34:46.653Z,50.55
2019-02-06T05:37:16.708Z,50.48
2019-02-06T05:40:06.321Z,50.37
2019-02-06T05:42:47.021Z,50.20
2019-02-06T05:45:36.659Z,49.51
2019-02-06T05:51:36.226Z,49.43
2019-02-06T05:54:08.238Z,49.37
2019-02-06T05:56:39.023Z,49.45
2019-02-06T06:02:34.475Z,50.33
2019-02-06T06:05:36.153Z,50.36
2019-02-06T06:08:25.610Z,50.48
2019-02-06T06:10:56.361Z,50.63
2019-02-06T06:13:26.493Z,50.36
2019-02-06T06:15:57.516Z,50.16
2019-02-06T06:18:28.685Z,50.16
2019-02-06T06:20:59.857Z,49.62
2019-02-06T06:23:49.165Z,49.68
2019-02-06T06:26:50.001Z,49.63
2019-02-06T06:29:40.447Z,49.81
2019-02-06T06:32:23.856Z,49.73
2019-02-06T06:35:04.025Z,49.68
2019-02-06T06:37:41.589Z,50.20
2019-02-06T06:40:31.803Z,50.43
2019-02-06T06:43:03.278Z,50.45
2019-02-06T06:46:11.964Z,50.86
2019-02-06T06:51:51.863Z,50.91
2019-02-06T06:57:30.759Z,51.23
2019-02-06T07:00:04.964Z,51.41
2019-02-06T07:02:54.215Z,51.80
2019-02-06T07:08:25.178Z,51.47
2019-02-06T07:11:15.569Z,51.22
2019-02-06T07:13:46.126Z,51.38
2019-02-06T07:19:45.577Z,51.89
2019-02-06T07:22:15.894Z,51.72
2019-02-06T07:25:08.908Z,51.44
2019-02-06T07:27:40.832Z,51.23
2019-02-06T07:30:30.982Z,50.85
2019-02-06T07:33:01.715Z,50.00
2019-02-06T07:44:26.240Z,49.46
2019-02-06T07:47:16.051Z,49.22
2019-02-06T07:49:48.942Z,49.40
2019-02-06T07:55:49.346Z,50.07
2019-02-06T07:58:38.631Z,50.07
2019-02-06T08:01:11.044Z,50.02
2019-02-06T08:07:10.091Z,48.67
2019-02-06T08:10:00.346Z,48.06
2019-02-06T08:12:32.287Z,47.86
2019-02-06T08:15:44.364Z,48.02
2019-02-06T08:21:44.603Z,47.80
2019-02-06T08:24:16.462Z,47.64
2019-02-06T08:27:07.030Z,47.95
2019-02-06T08:29:37.619Z,48.46
2019-02-06T08:32:39.280Z,47.75
2019-02-06T08:35:29.259Z,47.65
2019-02-06T08:38:00.221Z,47.65
2019-02-06T08:40:31.844Z,47.98
2019-02-06T08:43:24.784Z,48.31
2019-02-06T08:45:51.055Z,48.33
2019-02-06T08:48:41.327Z,47.80
2019-02-06T08:51:13.732Z,46.80
2019-02-06T08:53:45.570Z,47.03
2019-02-06T08:56:18.914Z,47.03
2019-02-06T08:59:21.754Z,47.24
2019-02-06T09:02:02.660Z,47.27
2019-02-06T09:04:34.095Z,47.27
2019-02-06T09:10:13.303Z,46.55
2019-02-06T09:13:13.105Z,46.61
2019-02-06T09:15:48.961Z,46.02
2019-02-06T09:18:22.187Z,46.12
2019-02-06T09:27:18.768Z,46.31
2019-02-06T09:30:23.332Z,46.01
2019-02-06T09:33:02.061Z,45.98
2019-02-06T09:39:27.469Z,45.38
2019-02-06T09:42:17.890Z,46.32
2019-02-06T09:44:49.380Z,45.72
2019-02-06T09:47:40.871Z,45.05
2019-02-06T09:50:15.757Z,45.05
2019-02-06T09:53:07.844Z,44.68
2019-02-06T10:02:00.943Z,44.80
2019-02-06T10:07:59.810Z,45.04
2019-02-06T10:13:35.330Z,42.92
2019-02-06T10:16:07.430Z,42.76
2019-02-06T10:22:05.639Z,42.72
2019-02-06T10:24:24.875Z,41.77
2019-02-06T10:27:35.769Z,42.36
2019-02-06T10:29:50.572Z,41.13
2019-02-06T10:32:25.817Z,40.61
2019-02-06T10:35:18.692Z,40.26
2019-02-06T10:41:04.680Z,40.35
2019-02-06T10:47:34.445Z,39.57
2019-02-06T10:50:06.113Z,39.08
2019-02-06T10:53:20.506Z,39.36
2019-02-06T10:56:04.301Z,38.91
2019-02-06T10:58:36.042Z,38.80
2019-02-06T11:01:07.177Z,39.06
2019-02-06T11:03:38.452Z,39.20
2019-02-06T11:06:10.692Z,37.87
2019-02-06T11:08:43.298Z,38.02
2019-02-06T11:11:36.028Z,37.85
2019-02-06T11:17:15.382Z,37.98
2019-02-06T11:20:09.495Z,37.43
2019-02-06T11:28:43.431Z,37.26
2019-02-06T11:31:33.892Z,37.24
2019-02-06T11:34:26.033Z,37.78
2019-02-06T11:37:19.477Z,37.95
2019-02-06T11:39:57.967Z,37.32
2019-02-06T11:42:27.085Z,36.99
2019-02-06T11:45:17.254Z,37.17
2019-02-06T11:48:11.133Z,36.70
2019-02-06T11:53:49.886Z,35.85
2019-02-06T11:56:43.234Z,36.05
2019-02-06T11:59:34.718Z,36.97
2019-02-06T12:02:38.585Z,36.41
2019-02-06T12:05:28.855Z,36.43
2019-02-06T12:11:56.483Z,36.48
2019-02-06T12:14:58.703Z,36.67
2019-02-06T12:17:37.849Z,37.24
2019-02-06T12:20:12.279Z,36.51
2019-02-06T12:22:43.494Z,35.92
2019-02-06T12:25:34.593Z,36.06
2019-02-06T12:31:32.865Z,36.29
2019-02-06T12:34:09.169Z,35.10
2019-02-06T12:36:56.487Z,35.17
2019-02-06T12:39:35.951Z,34.67
2019-02-06T12:48:10.980Z,34.51
2019-02-06T12:54:03.283Z,33.84
2019-02-06T12:56:34.243Z,33.84
2019-02-06T12:59:05.264Z,33.55
2019-02-06T13:01:37.532Z,33.22
2019-02-06T13:04:27.788Z,33.55
2019-02-06T13:07:00.222Z,33.96
2019-02-06T13:12:45.364Z,35.09
2019-02-06T13:18:56.647Z,33.94
2019-02-06T13:21:46.851Z,33.68
2019-02-06T13:27:31.764Z,34.80
2019-02-06T13:30:22.731Z,35.37
2019-02-06T13:33:34.486Z,35.03
2019-02-06T13:36:47.941Z,36.17
2019-02-06T13:45:37.059Z,34.58
2019-02-06T13:48:27.335Z,33.96
2019-02-06T13:51:51.842Z,33.92
2019-02-06T13:57:37.429Z,34.44
2019-02-06T14:10:13.812Z,35.12
2019-02-06T14:12:44.851Z,34.41
2019-02-06T14:15:52.721Z,34.50
2019-02-06T14:18:50.742Z,34.24
2019-02-06T14:21:41.724Z,34.33
2019-02-06T14:24:51.107Z,34.17
2019-02-06T14:27:54.171Z,34.00
2019-02-06T14:34:31.266Z,33.35
2019-02-06T14:37:41.430Z,33.90
2019-02-06T14:40:50.694Z,33.47
2019-02-06T14:44:23.582Z,33.34
2019-02-06T14:47:34.134Z,33.77
2019-02-06T14:50:30.337Z,34.32
2019-02-06T14:53:40.609Z,33.93
2019-02-06T14:56:50.134Z,34.38
2019-02-06T15:00:00.982Z,34.59
2019-02-06T15:03:21.789Z,34.02
2019-02-06T15:06:21.185Z,33.99
2019-02-06T15:09:30.725Z,34.16
2019-02-06T15:12:39.791Z,35.13
2019-02-06T15:16:03.173Z,34.89
2019-02-06T15:22:09.804Z,34.71
2019-02-06T15:25:14.105Z,34.17
2019-02-06T15:28:23.233Z,34.63
2019-02-06T15:31:33.996Z,34.55
2019-02-06T15:34:41.773Z,34.81
2019-02-06T15:37:23.826Z,34.80
2019-02-06T15:40:35.117Z,34.77
2019-02-06T15:43:46.577Z,34.86
2019-02-06T15:46:56.459Z,34.67
2019-02-06T15:53:44.804Z,35.58
2019-02-06T15:56:30.265Z,35.95
2019-02-06T15:59:29.690Z,35.79
2019-02-06T16:02:44.283Z,36.23
2019-02-06T16:06:29.700Z,37.06
2019-02-06T16:09:28.311Z,37.20
2019-02-06T16:12:38.176Z,37.66
2019-02-06T16:15:47.251Z,37.63
2019-02-06T16:19:00.716Z,37.40
2019-02-06T16:25:12.640Z,37.23
2019-02-06T16:28:21.720Z,37.91
2019-02-06T16:31:30.732Z,38.64
2019-02-06T16:34:44.899Z,38.69
2019-02-06T16:37:45.942Z,38.56
2019-02-06T16:40:45.423Z,38.19
2019-02-06T16:44:00.142Z,38.55
2019-02-06T16:47:15.054Z,38.85
2019-02-06T16:50:24.148Z,39.51
2019-02-06T16:53:33.223Z,40.05
2019-02-06T16:56:43.864Z,40.29
2019-02-06T16:59:53.004Z,40.33
2019-02-06T17:02:56.731Z,40.61
2019-02-06T17:09:14.836Z,40.76
2019-02-06T17:12:26.607Z,40.65
2019-02-06T17:15:23.628Z,40.60
2019-02-06T17:22:01.953Z,40.78
2019-02-06T17:25:12.611Z,40.78
2019-02-06T17:28:51.285Z,40.77
2019-02-06T17:31:31.215Z,39.83
2019-02-06T17:34:41.160Z,40.57
2019-02-06T17:38:03.236Z,41.10
2019-02-06T17:41:00.776Z,41.35
2019-02-06T17:44:15.637Z,41.48
2019-02-06T17:47:11.511Z,41.69
2019-02-06T17:53:25.568Z,41.51
2019-02-06T18:02:07.683Z,42.04
2019-02-06T18:05:00.292Z,42.05
2019-02-06T18:07:50.484Z,41.93
2019-02-06T18:13:23.789Z,42.19
2019-02-06T18:16:21.147Z,42.16
2019-02-06T18:19:24.329Z,42.13
2019-02-06T18:21:54.836Z,42.13
2019-02-06T18:24:57.281Z,41.55
2019-02-06T18:27:19.901Z,41.86
2019-02-06T18:29:53.787Z,42.02
2019-02-06T18:32:56.237Z,42.01
2019-02-06T18:38:46.664Z,42.27
2019-02-06T18:42:03.414Z,42.31
2019-02-06T18:44:25.285Z,42.59
2019-02-06T18:49:56.475Z,42.88
2019-02-06T18:52:37.780Z,42.85
2019-02-06T18:55:31.964Z,42.85
2019-02-06T18:58:31.538Z,42.66
2019-02-06T19:04:35.055Z,42.84
2019-02-06T19:13:35.851Z,42.82
2019-02-06T19:16:07.062Z,43.04
2019-02-06T19:18:40.792Z,43.32
2019-02-06T19:24:54.467Z,43.42
2019-02-06T19:27:45.061Z,43.51
2019-02-06T19:33:58.337Z,43.94
2019-02-06T19:36:50.320Z,44.08
2019-02-06T19:39:40.444Z,44.12
2019-02-06T19:42:13.222Z,44.19
2019-02-06T19:45:03.742Z,44.34
2019-02-06T19:50:46.820Z,44.33
2019-02-06T19:53:39.557Z,43.86
2019-02-06T19:56:29.952Z,43.65
2019-02-06T20:02:22.787Z,43.80
2019-02-06T20:05:00.099Z,43.98
2019-02-06T20:07:50.025Z,44.02
2019-02-06T20:10:55.360Z,44.16
2019-02-06T20:16:26.919Z,44.20
2019-02-06T20:27:55.967Z,44.31
2019-02-06T20:30:58.457Z,44.32
2019-02-06T20:33:12.070Z,44.36
2019-02-06T20:38:56.704Z,44.49
2019-02-06T20:41:49.295Z,44.59
2019-02-06T20:47:52.610Z,44.53
2019-02-06T20:50:31.200Z,44.63
2019-02-06T20:53:23.779Z,44.69
2019-02-06T20:55:54.857Z,44.28
2019-02-06T20:58:45.408Z,44.28
2019-02-06T21:04:47.178Z,44.54
2019-02-06T21:07:21.168Z,44.54
2019-02-06T21:10:34.885Z,44.41
2019-02-06T21:13:06.871Z,44.49
2019-02-06T21:18:57.662Z,44.73
2019-02-06T21:24:22.659Z,44.89
2019-02-06T21:33:32.667Z,45.36
2019-02-06T21:36:37.884Z,45.47
2019-02-06T21:39:12.605Z,45.48
2019-02-06T21:41:43.867Z,45.33
2019-02-06T21:44:14.958Z,45.18
2019-02-06T21:46:49.329Z,45.17
2019-02-06T21:49:20.331Z,45.32
2019-02-06T21:52:11.927Z,45.39
2019-02-06T21:54:47.097Z,45.53
2019-02-06T21:57:18.259Z,45.73
2019-02-06T21:59:51.201Z,45.73
2019-02-06T22:02:22.940Z,45.31
2019-02-06T22:08:02.559Z,45.17
2019-02-06T22:10:33.546Z,45.21
2019-02-06T22:13:24.330Z,45.29
2019-02-06T22:15:54.570Z,45.22
2019-02-06T22:18:25.455Z,45.41
2019-02-06T22:21:30.112Z,45.42
2019-02-06T22:26:56.803Z,45.58
2019-02-06T22:29:27.799Z,45.58
2019-02-06T22:31:59.143Z,45.58
2019-02-06T22:35:08.160Z,45.59
2019-02-06T22:38:19.698Z,45.57
2019-02-06T22:41:28.623Z,45.18
2019-02-06T22:47:21.620Z,45.36
2019-02-06T22:50:13.133Z,45.35
2019-02-06T22:53:07.099Z,45.57
2019-02-06T22:55:38.001Z,45.31
2019-02-06T23:01:39.372Z,45.37
2019-02-06T23:04:09.651Z,45.25
2019-02-06T23:07:19.090Z,45.25
2019-02-06T23:15:50.314Z,45.89
2019-02-06T23:18:40.822Z,45.95
2019-02-06T23:21:21.477Z,45.97
2019-02-06T23:26:59.901Z,45.93
2019-02-06T23:29:30.098Z,45.97
2019-02-06T23:32:20.605Z,45.87
2019-02-06T23:35:10.376Z,45.89
2019-02-06T23:38:00.419Z,45.82
2019-02-06T23:40:49.541Z,45.76
2019-02-06T23:43:38.617Z,45.68
2019-02-06T23:46:28.492Z,45.52
2019-02-06T23:48:58.707Z,45.40
2019-02-06T23:54:37.728Z,45.43
2019-02-06T23:57:08.640Z,45.29
2019-02-06T23:59:58.977Z,45.08
